sensor_id;sensor_type;location;lat;lon;timestamp;temperature;humidity
21799;DHT22;24973;47.178;15.316;2022-09-17T00:01:09;12.90;99.90
21799;DHT22;24973;47.178;15.316;2022-09-17T00:04:03;12.80;99.90
21799;DHT22;24973;47.178;15.316;2022-09-17T00:06:52;13.10;99.90
21799;DHT22;24973;47.178;15.316;2022-09-17T00:09:41;12.90;99.90
21799;DHT22;24973;47.178;15.316;2022-09-17T00:12:31;13.00;99.90
21799;DHT22;24973;47.178;15.316;2022-09-17T00:15:19;12.80;99.90
21799;DHT22;24973;47.178;15.316;2022-09-17T00:18:10;12.80;99.90
21799;DHT22;24973;47.178;15.316;2022-09-17T00:20:59;13.20;99.90
21799;DHT22;24973;47.178;15.316;2022-09-17T00:23:48;12.90;99.90
21799;DHT22;24973;47.178;15.316;2022-09-17T00:26:40;12.90;99.90
21799;DHT22;24973;47.178;15.316;2022-09-17T00:29:29;13.20;99.90
21799;DHT22;24973;47.178;15.316;2022-09-17T00:32:18;13.10;99.90
21799;DHT22;24973;47.178;15.316;2022-09-17T00:35:08;13.20;99.90
21799;DHT22;24973;47.178;15.316;2022-09-17T00:37:57;13.00;99.90
21799;DHT22;24973;47.178;15.316;2022-09-17T00:40:47;13.20;99.90
21799;DHT22;24973;47.178;15.316;2022-09-17T00:43:39;13.00;99.90
21799;DHT22;24973;47.178;15.316;2022-09-17T00:46:32;12.90;99.90
21799;DHT22;24973;47.178;15.316;2022-09-17T00:49:29;12.90;99.90
21799;DHT22;24973;47.178;15.316;2022-09-17T00:52:24;12.80;99.90
21799;DHT22;24973;47.178;15.316;2022-09-17T00:55:23;12.90;99.90
21799;DHT22;24973;47.178;15.316;2022-09-17T00:58:20;13.20;99.90
21799;DHT22;24973;47.178;15.316;2022-09-17T01:01:27;12.90;99.90
21799;DHT22;24973;47.178;15.316;2022-09-17T01:04:24;13.40;99.90
21799;DHT22;24973;47.178;15.316;2022-09-17T01:07:45;14.90;99.90
21799;DHT22;24973;47.178;15.316;2022-09-17T01:11:00;12.90;99.90
21799;DHT22;24973;47.178;15.316;2022-09-17T01:14:11;13.00;99.90
21799;DHT22;24973;47.178;15.316;2022-09-17T01:17:14;12.90;99.90
21799;DHT22;24973;47.178;15.316;2022-09-17T01:24:42;12.40;99.90
21799;DHT22;24973;47.178;15.316;2022-09-17T01:28:01;12.90;99.90
21799;DHT22;24973;47.178;15.316;2022-09-17T01:31:20;12.70;99.90
21799;DHT22;24973;47.178;15.316;2022-09-17T01:34:27;13.00;99.90
21799;DHT22;24973;47.178;15.316;2022-09-17T01:37:27;12.50;99.90
21799;DHT22;24973;47.178;15.316;2022-09-17T01:40:23;12.70;99.90
21799;DHT22;24973;47.178;15.316;2022-09-17T01:43:20;12.50;99.90
21799;DHT22;24973;47.178;15.316;2022-09-17T01:46:16;12.60;99.90
21799;DHT22;24973;47.178;15.316;2022-09-17T01:49:10;12.40;99.90
21799;DHT22;24973;47.178;15.316;2022-09-17T01:52:00;12.60;99.90
21799;DHT22;24973;47.178;15.316;2022-09-17T01:54:52;12.40;99.90
21799;DHT22;24973;47.178;15.316;2022-09-17T01:57:48;12.60;99.90
21799;DHT22;24973;47.178;15.316;2022-09-17T02:00:41;12.20;99.90
21799;DHT22;24973;47.178;15.316;2022-09-17T02:03:38;12.30;99.90
21799;DHT22;24973;47.178;15.316;2022-09-17T02:06:32;12.40;99.90
21799;DHT22;24973;47.178;15.316;2022-09-17T02:09:26;12.00;99.90
21799;DHT22;24973;47.178;15.316;2022-09-17T02:12:24;12.30;99.90
21799;DHT22;24973;47.178;15.316;2022-09-17T02:15:21;12.20;99.90
21799;DHT22;24973;47.178;15.316;2022-09-17T02:18:17;12.00;99.90
21799;DHT22;24973;47.178;15.316;2022-09-17T02:21:15;12.10;99.90
21799;DHT22;24973;47.178;15.316;2022-09-17T02:24:13;12.40;99.90
21799;DHT22;24973;47.178;15.316;2022-09-17T02:27:09;12.20;99.90
21799;DHT22;24973;47.178;15.316;2022-09-17T02:30:01;12.00;99.90
21799;DHT22;24973;47.178;15.316;2022-09-17T02:32:52;12.00;99.90
21799;DHT22;24973;47.178;15.316;2022-09-17T02:35:41;11.90;99.90
21799;DHT22;24973;47.178;15.316;2022-09-17T02:38:34;12.10;99.90
21799;DHT22;24973;47.178;15.316;2022-09-17T02:41:25;11.90;99.90
21799;DHT22;24973;47.178;15.316;2022-09-17T02:44:27;11.90;99.90
21799;DHT22;24973;47.178;15.316;2022-09-17T02:47:52;11.80;99.90
21799;DHT22;24973;47.178;15.316;2022-09-17T02:51:04;12.10;99.90
21799;DHT22;24973;47.178;15.316;2022-09-17T02:54:07;11.90;99.90
21799;DHT22;24973;47.178;15.316;2022-09-17T02:57:09;11.90;99.90
21799;DHT22;24973;47.178;15.316;2022-09-17T03:00:08;11.50;99.90
21799;DHT22;24973;47.178;15.316;2022-09-17T03:03:05;12.10;99.90
21799;DHT22;24973;47.178;15.316;2022-09-17T03:05:56;12.10;99.90
21799;DHT22;24973;47.178;15.316;2022-09-17T03:08:46;11.60;99.90
21799;DHT22;24973;47.178;15.316;2022-09-17T03:11:37;11.70;99.90
21799;DHT22;24973;47.178;15.316;2022-09-17T03:14:25;11.90;99.90
21799;DHT22;24973;47.178;15.316;2022-09-17T03:17:14;11.40;99.90
21799;DHT22;24973;47.178;15.316;2022-09-17T03:20:04;12.00;99.90
21799;DHT22;24973;47.178;15.316;2022-09-17T03:22:53;12.00;99.90
21799;DHT22;24973;47.178;15.316;2022-09-17T03:25:42;11.70;99.90
21799;DHT22;24973;47.178;15.316;2022-09-17T03:28:33;11.90;99.90
21799;DHT22;24973;47.178;15.316;2022-09-17T03:31:22;11.70;99.90
21799;DHT22;24973;47.178;15.316;2022-09-17T03:34:10;11.70;99.90
21799;DHT22;24973;47.178;15.316;2022-09-17T03:36:59;11.80;99.90
21799;DHT22;24973;47.178;15.316;2022-09-17T03:39:48;11.60;99.90
21799;DHT22;24973;47.178;15.316;2022-09-17T03:42:37;11.70;99.90
21799;DHT22;24973;47.178;15.316;2022-09-17T03:45:28;11.60;99.90
21799;DHT22;24973;47.178;15.316;2022-09-17T03:48:17;11.70;99.90
21799;DHT22;24973;47.178;15.316;2022-09-17T03:51:06;11.60;99.90
21799;DHT22;24973;47.178;15.316;2022-09-17T03:53:55;11.60;99.90
21799;DHT22;24973;47.178;15.316;2022-09-17T03:56:44;12.00;99.90
21799;DHT22;24973;47.178;15.316;2022-09-17T03:59:33;11.60;99.90
21799;DHT22;24973;47.178;15.316;2022-09-17T04:02:23;11.60;99.90
21799;DHT22;24973;47.178;15.316;2022-09-17T04:05:11;11.60;99.90
21799;DHT22;24973;47.178;15.316;2022-09-17T04:08:01;11.60;99.90
21799;DHT22;24973;47.178;15.316;2022-09-17T04:10:49;11.50;99.90
21799;DHT22;24973;47.178;15.316;2022-09-17T04:13:39;11.50;99.90
21799;DHT22;24973;47.178;15.316;2022-09-17T04:16:27;11.60;99.90
21799;DHT22;24973;47.178;15.316;2022-09-17T04:19:17;11.60;99.90
21799;DHT22;24973;47.178;15.316;2022-09-17T04:22:06;11.60;99.90
21799;DHT22;24973;47.178;15.316;2022-09-17T04:24:54;11.60;99.90
21799;DHT22;24973;47.178;15.316;2022-09-17T04:27:43;11.60;99.90
21799;DHT22;24973;47.178;15.316;2022-09-17T04:30:33;11.50;99.90
21799;DHT22;24973;47.178;15.316;2022-09-17T04:33:22;11.50;99.90
21799;DHT22;24973;47.178;15.316;2022-09-17T04:36:12;11.40;99.90
21799;DHT22;24973;47.178;15.316;2022-09-17T04:39:00;11.30;99.90
21799;DHT22;24973;47.178;15.316;2022-09-17T04:41:49;11.30;99.90
21799;DHT22;24973;47.178;15.316;2022-09-17T04:44:38;11.30;99.90
21799;DHT22;24973;47.178;15.316;2022-09-17T04:47:26;11.30;99.90
21799;DHT22;24973;47.178;15.316;2022-09-17T04:50:15;11.30;99.90
21799;DHT22;24973;47.178;15.316;2022-09-17T04:53:06;11.30;99.90
21799;DHT22;24973;47.178;15.316;2022-09-17T04:55:54;11.20;99.90
21799;DHT22;24973;47.178;15.316;2022-09-17T04:58:43;11.30;99.90
21799;DHT22;24973;47.178;15.316;2022-09-17T05:01:32;11.20;99.90
21799;DHT22;24973;47.178;15.316;2022-09-17T05:04:20;11.20;99.90
21799;DHT22;24973;47.178;15.316;2022-09-17T05:07:09;11.20;99.90
21799;DHT22;24973;47.178;15.316;2022-09-17T05:10:00;11.20;99.90
21799;DHT22;24973;47.178;15.316;2022-09-17T05:12:49;11.20;99.90
21799;DHT22;24973;47.178;15.316;2022-09-17T05:15:39;11.30;99.90
21799;DHT22;24973;47.178;15.316;2022-09-17T05:18:27;11.30;99.90
21799;DHT22;24973;47.178;15.316;2022-09-17T05:21:16;11.30;99.90
21799;DHT22;24973;47.178;15.316;2022-09-17T05:24:05;11.30;99.90
21799;DHT22;24973;47.178;15.316;2022-09-17T05:26:56;11.30;99.90
21799;DHT22;24973;47.178;15.316;2022-09-17T05:29:44;11.30;99.90
21799;DHT22;24973;47.178;15.316;2022-09-17T05:32:33;11.20;99.90
21799;DHT22;24973;47.178;15.316;2022-09-17T05:35:22;11.20;99.90
21799;DHT22;24973;47.178;15.316;2022-09-17T05:38:11;11.20;99.90
21799;DHT22;24973;47.178;15.316;2022-09-17T05:41:03;11.20;99.90
21799;DHT22;24973;47.178;15.316;2022-09-17T05:43:54;11.20;99.90
21799;DHT22;24973;47.178;15.316;2022-09-17T05:46:43;11.10;99.90
21799;DHT22;24973;47.178;15.316;2022-09-17T05:49:32;11.10;99.90
21799;DHT22;24973;47.178;15.316;2022-09-17T05:52:20;11.20;99.90
21799;DHT22;24973;47.178;15.316;2022-09-17T05:55:09;11.20;99.90
21799;DHT22;24973;47.178;15.316;2022-09-17T05:57:58;11.10;99.90
21799;DHT22;24973;47.178;15.316;2022-09-17T06:00:48;11.10;99.90
21799;DHT22;24973;47.178;15.316;2022-09-17T06:03:37;11.10;99.90
21799;DHT22;24973;47.178;15.316;2022-09-17T06:06:27;11.20;99.90
21799;DHT22;24973;47.178;15.316;2022-09-17T06:09:17;11.20;99.90
21799;DHT22;24973;47.178;15.316;2022-09-17T06:12:06;11.20;99.90
21799;DHT22;24973;47.178;15.316;2022-09-17T06:14:55;11.20;99.90
21799;DHT22;24973;47.178;15.316;2022-09-17T06:17:45;11.30;99.90
21799;DHT22;24973;47.178;15.316;2022-09-17T06:20:34;11.30;99.90
21799;DHT22;24973;47.178;15.316;2022-09-17T06:23:23;11.30;99.90
21799;DHT22;24973;47.178;15.316;2022-09-17T06:26:11;11.30;99.90
21799;DHT22;24973;47.178;15.316;2022-09-17T06:29:00;11.30;99.90
21799;DHT22;24973;47.178;15.316;2022-09-17T06:31:49;11.30;99.90
21799;DHT22;24973;47.178;15.316;2022-09-17T06:34:40;11.20;99.90
21799;DHT22;24973;47.178;15.316;2022-09-17T06:37:31;11.20;99.90
21799;DHT22;24973;47.178;15.316;2022-09-17T06:40:20;11.20;99.90
21799;DHT22;24973;47.178;15.316;2022-09-17T06:43:09;11.10;99.90
21799;DHT22;24973;47.178;15.316;2022-09-17T06:46:00;11.10;99.90
21799;DHT22;24973;47.178;15.316;2022-09-17T06:48:49;11.10;99.90
21799;DHT22;24973;47.178;15.316;2022-09-17T06:51:39;11.70;99.90
21799;DHT22;24973;47.178;15.316;2022-09-17T06:54:28;11.20;99.90
21799;DHT22;24973;47.178;15.316;2022-09-17T06:57:17;11.20;99.90
21799;DHT22;24973;47.178;15.316;2022-09-17T07:00:06;11.20;99.90
21799;DHT22;24973;47.178;15.316;2022-09-17T07:02:56;11.10;99.90
21799;DHT22;24973;47.178;15.316;2022-09-17T07:05:45;11.10;99.90
21799;DHT22;24973;47.178;15.316;2022-09-17T07:08:35;11.10;99.90
21799;DHT22;24973;47.178;15.316;2022-09-17T07:11:24;11.20;99.90
21799;DHT22;24973;47.178;15.316;2022-09-17T07:14:12;11.20;99.90
21799;DHT22;24973;47.178;15.316;2022-09-17T07:17:01;11.30;99.90
21799;DHT22;24973;47.178;15.316;2022-09-17T07:19:50;11.40;99.90
21799;DHT22;24973;47.178;15.316;2022-09-17T07:22:39;11.30;99.90
21799;DHT22;24973;47.178;15.316;2022-09-17T07:25:29;11.30;99.90
21799;DHT22;24973;47.178;15.316;2022-09-17T07:28:18;11.40;99.90
21799;DHT22;24973;47.178;15.316;2022-09-17T07:31:07;11.50;99.90
21799;DHT22;24973;47.178;15.316;2022-09-17T07:33:58;11.50;99.90
21799;DHT22;24973;47.178;15.316;2022-09-17T07:36:47;11.50;99.90
21799;DHT22;24973;47.178;15.316;2022-09-17T07:39:36;11.50;99.90
21799;DHT22;24973;47.178;15.316;2022-09-17T07:42:26;11.50;99.90
21799;DHT22;24973;47.178;15.316;2022-09-17T07:45:15;11.50;99.90
21799;DHT22;24973;47.178;15.316;2022-09-17T07:48:03;11.50;99.90
21799;DHT22;24973;47.178;15.316;2022-09-17T07:50:52;11.40;99.90
21799;DHT22;24973;47.178;15.316;2022-09-17T07:53:41;11.30;99.90
21799;DHT22;24973;47.178;15.316;2022-09-17T07:56:30;11.30;99.90
21799;DHT22;24973;47.178;15.316;2022-09-17T07:59:20;11.30;99.90
21799;DHT22;24973;47.178;15.316;2022-09-17T08:02:11;11.30;99.90
21799;DHT22;24973;47.178;15.316;2022-09-17T08:08:11;11.20;99.90
21799;DHT22;24973;47.178;15.316;2022-09-17T08:11:02;11.20;99.90
21799;DHT22;24973;47.178;15.316;2022-09-17T08:13:53;11.40;99.90
21799;DHT22;24973;47.178;15.316;2022-09-17T08:16:43;8.70;99.90
21799;DHT22;24973;47.178;15.316;2022-09-17T08:19:33;11.30;99.90
21799;DHT22;24973;47.178;15.316;2022-09-17T08:22:22;11.50;99.90
21799;DHT22;24973;47.178;15.316;2022-09-17T08:25:11;11.60;99.90
21799;DHT22;24973;47.178;15.316;2022-09-17T08:28:00;11.60;99.90
21799;DHT22;24973;47.178;15.316;2022-09-17T08:30:49;11.70;99.90
21799;DHT22;24973;47.178;15.316;2022-09-17T08:33:39;11.60;99.90
21799;DHT22;24973;47.178;15.316;2022-09-17T08:36:29;11.60;99.90
21799;DHT22;24973;47.178;15.316;2022-09-17T08:39:18;11.70;99.90
21799;DHT22;24973;47.178;15.316;2022-09-17T08:42:16;11.40;99.90
21799;DHT22;24973;47.178;15.316;2022-09-17T08:45:11;11.50;99.90
21799;DHT22;24973;47.178;15.316;2022-09-17T08:48:11;11.70;99.90
21799;DHT22;24973;47.178;15.316;2022-09-17T08:51:22;11.70;99.90
21799;DHT22;24973;47.178;15.316;2022-09-17T08:54:18;11.70;99.90
21799;DHT22;24973;47.178;15.316;2022-09-17T08:57:20;11.70;99.90
21799;DHT22;24973;47.178;15.316;2022-09-17T09:00:17;12.20;99.90
21799;DHT22;24973;47.178;15.316;2022-09-17T09:03:31;11.80;99.90
21799;DHT22;24973;47.178;15.316;2022-09-17T09:06:31;11.80;99.90
21799;DHT22;24973;47.178;15.316;2022-09-17T09:09:23;11.70;99.90
21799;DHT22;24973;47.178;15.316;2022-09-17T09:12:19;11.70;99.90
21799;DHT22;24973;47.178;15.316;2022-09-17T09:15:21;11.60;99.90
21799;DHT22;24973;47.178;15.316;2022-09-17T09:18:18;11.50;99.90
21799;DHT22;24973;47.178;15.316;2022-09-17T09:21:19;11.50;99.90
21799;DHT22;24973;47.178;15.316;2022-09-17T09:24:21;11.50;99.90
21799;DHT22;24973;47.178;15.316;2022-09-17T09:27:15;11.50;99.90
21799;DHT22;24973;47.178;15.316;2022-09-17T09:30:07;11.50;99.90
21799;DHT22;24973;47.178;15.316;2022-09-17T09:33:01;11.70;99.90
21799;DHT22;24973;47.178;15.316;2022-09-17T09:35:55;11.70;99.90
21799;DHT22;24973;47.178;15.316;2022-09-17T09:38:49;11.70;99.90
21799;DHT22;24973;47.178;15.316;2022-09-17T09:41:43;11.70;99.90
21799;DHT22;24973;47.178;15.316;2022-09-17T09:44:33;11.70;99.90
21799;DHT22;24973;47.178;15.316;2022-09-17T09:47:34;11.70;99.90
21799;DHT22;24973;47.178;15.316;2022-09-17T09:50:40;11.70;99.90
21799;DHT22;24973;47.178;15.316;2022-09-17T09:54:05;11.70;99.90
21799;DHT22;24973;47.178;15.316;2022-09-17T09:57:02;11.70;99.90
21799;DHT22;24973;47.178;15.316;2022-09-17T10:00:22;11.90;99.90
21799;DHT22;24973;47.178;15.316;2022-09-17T10:03:17;11.80;99.90
21799;DHT22;24973;47.178;15.316;2022-09-17T10:06:09;11.80;99.90
21799;DHT22;24973;47.178;15.316;2022-09-17T10:09:10;11.90;99.90
21799;DHT22;24973;47.178;15.316;2022-09-17T10:12:12;12.00;99.90
21799;DHT22;24973;47.178;15.316;2022-09-17T10:15:23;12.10;99.90
21799;DHT22;24973;47.178;15.316;2022-09-17T10:18:16;12.20;99.90
21799;DHT22;24973;47.178;15.316;2022-09-17T10:21:18;12.30;99.90
21799;DHT22;24973;47.178;15.316;2022-09-17T10:24:17;12.50;99.90
21799;DHT22;24973;47.178;15.316;2022-09-17T10:27:13;12.70;99.90
21799;DHT22;24973;47.178;15.316;2022-09-17T10:30:14;13.20;99.90
21799;DHT22;24973;47.178;15.316;2022-09-17T10:33:16;13.10;99.90
21799;DHT22;24973;47.178;15.316;2022-09-17T10:36:07;13.30;99.90
21799;DHT22;24973;47.178;15.316;2022-09-17T10:38:57;13.40;99.90
21799;DHT22;24973;47.178;15.316;2022-09-17T10:41:56;13.50;99.90
21799;DHT22;24973;47.178;15.316;2022-09-17T10:44:51;13.60;99.90
21799;DHT22;24973;47.178;15.316;2022-09-17T10:47:41;13.60;99.90
21799;DHT22;24973;47.178;15.316;2022-09-17T10:50:32;13.70;99.90
21799;DHT22;24973;47.178;15.316;2022-09-17T10:53:21;13.70;99.90
21799;DHT22;24973;47.178;15.316;2022-09-17T10:56:18;13.70;99.90
21799;DHT22;24973;47.178;15.316;2022-09-17T10:59:41;13.70;99.90
21799;DHT22;24973;47.178;15.316;2022-09-17T11:03:08;13.60;99.90
21799;DHT22;24973;47.178;15.316;2022-09-17T11:06:38;13.50;99.90
21799;DHT22;24973;47.178;15.316;2022-09-17T11:09:44;13.50;99.90
21799;DHT22;24973;47.178;15.316;2022-09-17T11:12:45;13.40;99.90
21799;DHT22;24973;47.178;15.316;2022-09-17T11:15:58;13.30;99.90
21799;DHT22;24973;47.178;15.316;2022-09-17T11:18:59;13.20;99.90
21799;DHT22;24973;47.178;15.316;2022-09-17T11:22:02;13.10;99.90
21799;DHT22;24973;47.178;15.316;2022-09-17T11:25:20;13.10;99.90
21799;DHT22;24973;47.178;15.316;2022-09-17T11:28:30;13.10;99.90
21799;DHT22;24973;47.178;15.316;2022-09-17T11:31:44;13.10;99.90
21799;DHT22;24973;47.178;15.316;2022-09-17T11:34:40;13.20;99.90
21799;DHT22;24973;47.178;15.316;2022-09-17T11:37:36;13.20;99.90
21799;DHT22;24973;47.178;15.316;2022-09-17T11:40:34;13.30;99.90
21799;DHT22;24973;47.178;15.316;2022-09-17T11:43:28;13.40;99.90
21799;DHT22;24973;47.178;15.316;2022-09-17T11:46:22;13.40;99.90
21799;DHT22;24973;47.178;15.316;2022-09-17T11:49:22;13.40;99.90
21799;DHT22;24973;47.178;15.316;2022-09-17T11:52:19;13.40;99.90
21799;DHT22;24973;47.178;15.316;2022-09-17T11:55:19;13.40;99.90
21799;DHT22;24973;47.178;15.316;2022-09-17T11:58:13;13.40;99.90
21799;DHT22;24973;47.178;15.316;2022-09-17T12:01:11;13.40;99.90
21799;DHT22;24973;47.178;15.316;2022-09-17T12:04:18;13.50;99.90
21799;DHT22;24973;47.178;15.316;2022-09-17T12:07:24;13.40;99.90
21799;DHT22;24973;47.178;15.316;2022-09-17T12:10:38;13.40;99.90
21799;DHT22;24973;47.178;15.316;2022-09-17T12:13:34;13.40;99.90
21799;DHT22;24973;47.178;15.316;2022-09-17T12:16:28;13.40;99.90
21799;DHT22;24973;47.178;15.316;2022-09-17T12:19:26;13.40;99.90
21799;DHT22;24973;47.178;15.316;2022-09-17T12:22:20;13.40;99.90
21799;DHT22;24973;47.178;15.316;2022-09-17T12:25:12;13.40;99.90
21799;DHT22;24973;47.178;15.316;2022-09-17T12:28:04;13.30;99.90
21799;DHT22;24973;47.178;15.316;2022-09-17T12:31:01;13.30;99.90
21799;DHT22;24973;47.178;15.316;2022-09-17T12:33:55;14.80;99.90
21799;DHT22;24973;47.178;15.316;2022-09-17T12:36:49;13.70;99.90
21799;DHT22;24973;47.178;15.316;2022-09-17T12:40:02;13.20;99.90
21799;DHT22;24973;47.178;15.316;2022-09-17T12:43:17;13.10;99.90
21799;DHT22;24973;47.178;15.316;2022-09-17T12:46:32;13.00;99.90
21799;DHT22;24973;47.178;15.316;2022-09-17T12:49:43;13.00;99.90
21799;DHT22;24973;47.178;15.316;2022-09-17T12:52:54;13.00;99.90
21799;DHT22;24973;47.178;15.316;2022-09-17T12:56:05;13.00;99.90
21799;DHT22;24973;47.178;15.316;2022-09-17T12:59:05;12.90;99.90
21799;DHT22;24973;47.178;15.316;2022-09-17T13:01:58;12.90;99.90
21799;DHT22;24973;47.178;15.316;2022-09-17T13:05:21;12.90;99.90
21799;DHT22;24973;47.178;15.316;2022-09-17T13:08:46;12.90;99.90
21799;DHT22;24973;47.178;15.316;2022-09-17T13:12:07;12.90;99.90
21799;DHT22;24973;47.178;15.316;2022-09-17T13:15:18;12.90;99.90
21799;DHT22;24973;47.178;15.316;2022-09-17T13:18:40;12.90;99.90
21799;DHT22;24973;47.178;15.316;2022-09-17T13:21:46;12.70;99.90
21799;DHT22;24973;47.178;15.316;2022-09-17T13:24:40;12.70;99.90
21799;DHT22;24973;47.178;15.316;2022-09-17T13:27:32;12.60;99.90
21799;DHT22;24973;47.178;15.316;2022-09-17T13:30:24;12.50;99.90
21799;DHT22;24973;47.178;15.316;2022-09-17T13:36:52;12.50;99.90
21799;DHT22;24973;47.178;15.316;2022-09-17T13:39:45;12.40;99.90
21799;DHT22;24973;47.178;15.316;2022-09-17T13:42:43;12.30;99.90
21799;DHT22;24973;47.178;15.316;2022-09-17T13:46:10;12.30;99.90
21799;DHT22;24973;47.178;15.316;2022-09-17T13:49:12;12.30;99.90
21799;DHT22;24973;47.178;15.316;2022-09-17T13:52:03;12.30;99.90
21799;DHT22;24973;47.178;15.316;2022-09-17T13:54:56;12.30;99.90
21799;DHT22;24973;47.178;15.316;2022-09-17T13:57:48;12.30;99.90
21799;DHT22;24973;47.178;15.316;2022-09-17T14:00:52;12.40;99.90
21799;DHT22;24973;47.178;15.316;2022-09-17T14:03:53;12.40;99.90
21799;DHT22;24973;47.178;15.316;2022-09-17T14:06:50;12.40;99.90
21799;DHT22;24973;47.178;15.316;2022-09-17T14:09:50;12.20;99.90
21799;DHT22;24973;47.178;15.316;2022-09-17T14:12:55;12.10;99.90
21799;DHT22;24973;47.178;15.316;2022-09-17T14:19:31;11.90;99.90
21799;DHT22;24973;47.178;15.316;2022-09-17T14:22:24;11.90;99.90
21799;DHT22;24973;47.178;15.316;2022-09-17T14:25:15;11.80;99.90
21799;DHT22;24973;47.178;15.316;2022-09-17T14:28:12;11.80;99.90
21799;DHT22;24973;47.178;15.316;2022-09-17T14:31:10;11.80;99.90
21799;DHT22;24973;47.178;15.316;2022-09-17T14:34:07;11.90;99.90
21799;DHT22;24973;47.178;15.316;2022-09-17T14:37:01;11.90;99.90
21799;DHT22;24973;47.178;15.316;2022-09-17T14:39:50;11.80;99.90
21799;DHT22;24973;47.178;15.316;2022-09-17T14:42:39;11.80;99.90
21799;DHT22;24973;47.178;15.316;2022-09-17T14:45:31;11.80;99.90
21799;DHT22;24973;47.178;15.316;2022-09-17T14:48:31;11.80;99.90
21799;DHT22;24973;47.178;15.316;2022-09-17T14:51:23;11.70;99.90
21799;DHT22;24973;47.178;15.316;2022-09-17T14:54:22;11.70;99.90
21799;DHT22;24973;47.178;15.316;2022-09-17T14:57:20;11.80;99.90
21799;DHT22;24973;47.178;15.316;2022-09-17T15:00:18;11.90;99.90
21799;DHT22;24973;47.178;15.316;2022-09-17T15:03:20;12.10;99.90
21799;DHT22;24973;47.178;15.316;2022-09-17T15:06:19;12.00;99.90
21799;DHT22;24973;47.178;15.316;2022-09-17T15:09:14;12.00;99.90
21799;DHT22;24973;47.178;15.316;2022-09-17T15:12:04;12.00;99.90
21799;DHT22;24973;47.178;15.316;2022-09-17T15:14:55;12.00;99.90
21799;DHT22;24973;47.178;15.316;2022-09-17T15:17:45;12.00;99.90
21799;DHT22;24973;47.178;15.316;2022-09-17T15:20:36;12.00;99.90
21799;DHT22;24973;47.178;15.316;2022-09-17T15:23:26;11.90;99.90
21799;DHT22;24973;47.178;15.316;2022-09-17T15:26:21;12.00;99.90
21799;DHT22;24973;47.178;15.316;2022-09-17T15:29:20;11.90;99.90
21799;DHT22;24973;47.178;15.316;2022-09-17T15:32:12;11.90;99.90
21799;DHT22;24973;47.178;15.316;2022-09-17T15:35:23;11.90;99.90
21799;DHT22;24973;47.178;15.316;2022-09-17T15:38:23;11.80;99.90
21799;DHT22;24973;47.178;15.316;2022-09-17T15:41:27;11.80;99.90
21799;DHT22;24973;47.178;15.316;2022-09-17T15:44:22;11.70;99.90
21799;DHT22;24973;47.178;15.316;2022-09-17T15:47:35;11.70;99.90
21799;DHT22;24973;47.178;15.316;2022-09-17T15:50:32;11.70;99.90
21799;DHT22;24973;47.178;15.316;2022-09-17T15:53:25;11.70;99.90
21799;DHT22;24973;47.178;15.316;2022-09-17T15:56:16;11.80;99.90
21799;DHT22;24973;47.178;15.316;2022-09-17T15:59:25;11.80;99.90
21799;DHT22;24973;47.178;15.316;2022-09-17T16:02:25;11.90;99.90
21799;DHT22;24973;47.178;15.316;2022-09-17T16:05:48;11.80;99.90
21799;DHT22;24973;47.178;15.316;2022-09-17T16:08:40;11.90;99.90
21799;DHT22;24973;47.178;15.316;2022-09-17T16:11:30;11.80;99.90
21799;DHT22;24973;47.178;15.316;2022-09-17T16:14:19;11.80;99.90
21799;DHT22;24973;47.178;15.316;2022-09-17T16:20:16;11.70;99.90
21799;DHT22;24973;47.178;15.316;2022-09-17T16:23:08;11.70;99.90
21799;DHT22;24973;47.178;15.316;2022-09-17T16:25:58;11.60;99.90
21799;DHT22;24973;47.178;15.316;2022-09-17T16:28:48;11.70;99.90
21799;DHT22;24973;47.178;15.316;2022-09-17T16:31:40;11.70;99.90
21799;DHT22;24973;47.178;15.316;2022-09-17T16:34:30;11.60;99.90
21799;DHT22;24973;47.178;15.316;2022-09-17T16:37:19;11.60;99.90
21799;DHT22;24973;47.178;15.316;2022-09-17T16:40:09;11.50;99.90
21799;DHT22;24973;47.178;15.316;2022-09-17T16:43:01;11.30;99.90
21799;DHT22;24973;47.178;15.316;2022-09-17T16:45:57;11.20;99.90
21799;DHT22;24973;47.178;15.316;2022-09-17T16:48:49;11.20;99.90
21799;DHT22;24973;47.178;15.316;2022-09-17T16:51:38;11.10;99.90
21799;DHT22;24973;47.178;15.316;2022-09-17T16:54:26;11.10;99.90
21799;DHT22;24973;47.178;15.316;2022-09-17T16:57:15;11.00;99.90
21799;DHT22;24973;47.178;15.316;2022-09-17T17:00:08;10.90;99.90
21799;DHT22;24973;47.178;15.316;2022-09-17T17:02:59;10.90;99.90
21799;DHT22;24973;47.178;15.316;2022-09-17T17:05:47;10.80;99.90
21799;DHT22;24973;47.178;15.316;2022-09-17T17:08:36;10.80;99.90
21799;DHT22;24973;47.178;15.316;2022-09-17T17:11:25;10.80;99.90
21799;DHT22;24973;47.178;15.316;2022-09-17T17:14:14;10.70;99.90
21799;DHT22;24973;47.178;15.316;2022-09-17T17:17:04;10.70;99.90
21799;DHT22;24973;47.178;15.316;2022-09-17T17:19:53;10.60;99.90
21799;DHT22;24973;47.178;15.316;2022-09-17T17:22:42;10.50;99.90
21799;DHT22;24973;47.178;15.316;2022-09-17T17:25:31;10.50;99.90
21799;DHT22;24973;47.178;15.316;2022-09-17T17:28:21;10.40;99.90
21799;DHT22;24973;47.178;15.316;2022-09-17T17:31:10;10.30;99.90
21799;DHT22;24973;47.178;15.316;2022-09-17T17:34:00;10.30;99.90
21799;DHT22;24973;47.178;15.316;2022-09-17T17:36:49;10.30;99.90
21799;DHT22;24973;47.178;15.316;2022-09-17T17:39:37;10.30;99.90
21799;DHT22;24973;47.178;15.316;2022-09-17T17:42:26;10.30;99.90
21799;DHT22;24973;47.178;15.316;2022-09-17T17:45:21;10.20;99.90
21799;DHT22;24973;47.178;15.316;2022-09-17T17:48:10;10.00;99.90
21799;DHT22;24973;47.178;15.316;2022-09-17T17:51:02;10.00;99.90
21799;DHT22;24973;47.178;15.316;2022-09-17T17:53:52;9.90;99.90
21799;DHT22;24973;47.178;15.316;2022-09-17T17:56:41;9.90;99.90
21799;DHT22;24973;47.178;15.316;2022-09-17T17:59:29;10.30;99.90
21799;DHT22;24973;47.178;15.316;2022-09-17T18:02:18;9.80;99.90
21799;DHT22;24973;47.178;15.316;2022-09-17T18:05:07;9.70;99.90
21799;DHT22;24973;47.178;15.316;2022-09-17T18:07:59;9.70;99.90
21799;DHT22;24973;47.178;15.316;2022-09-17T18:10:51;9.60;99.90
21799;DHT22;24973;47.178;15.316;2022-09-17T18:13:41;9.60;99.90
21799;DHT22;24973;47.178;15.316;2022-09-17T18:16:30;9.50;99.90
21799;DHT22;24973;47.178;15.316;2022-09-17T18:19:18;9.40;99.90
21799;DHT22;24973;47.178;15.316;2022-09-17T18:22:07;9.40;99.90
21799;DHT22;24973;47.178;15.316;2022-09-17T18:24:58;9.20;99.90
21799;DHT22;24973;47.178;15.316;2022-09-17T18:27:46;9.10;99.90